createdAt,value
2023-04-28T00:00:07.507Z,51.88
2023-04-28T00:02:34.441Z,52.05
2023-04-28T00:05:01.568Z,52.11
2023-04-28T00:07:28.565Z,51.83
2023-04-28T00:09:57.064Z,52.33
2023-04-28T00:12:24.365Z,52.33
2023-04-28T00:14:51.213Z,52.41
2023-04-28T00:17:17.868Z,52.43
2023-04-28T00:19:45.132Z,52.58
2023-04-28T00:22:11.850Z,52.30
2023-04-28T00:24:38.530Z,52.79
2023-04-28T00:27:05.229Z,52.75
2023-04-28T00:29:31.832Z,53.02
2023-04-28T00:31:58.588Z,52.97
2023-04-28T00:34:25.463Z,53.03
2023-04-28T00:36:52.159Z,53.11
2023-04-28T00:39:18.932Z,53.32
2023-04-28T00:41:45.574Z,53.22
2023-04-28T00:44:12.510Z,53.68
2023-04-28T00:46:39.523Z,53.73
2023-04-28T00:49:06.589Z,54.01
2023-04-28T00:51:34.001Z,54.12
2023-04-28T00:58:30.382Z,54.72
2023-04-28T01:01:04.799Z,54.62
2023-04-28T01:03:34.718Z,54.79
2023-04-28T01:06:02.838Z,55.28
2023-04-28T01:08:31.414Z,54.98
2023-04-28T01:10:59.478Z,55.32
2023-04-28T01:13:50.023Z,55.40
2023-04-28T01:16:16.759Z,55.15
2023-04-28T01:18:48.223Z,55.27
2023-04-28T01:21:15.355Z,55.31
2023-04-28T01:23:46.908Z,55.42
2023-04-28T01:26:14.449Z,55.59
2023-04-28T01:28:41.420Z,55.91
2023-04-28T01:31:08.265Z,55.91
2023-04-28T01:33:34.970Z,55.77
2023-04-28T01:36:01.944Z,55.79
2023-04-28T01:38:28.585Z,56.20
2023-04-28T01:40:56.536Z,56.19
2023-04-28T01:43:23.169Z,56.07
2023-04-28T01:45:49.920Z,56.17
2023-04-28T01:48:16.699Z,56.54
2023-04-28T01:50:46.410Z,56.61
2023-04-28T01:53:14.255Z,56.55
2023-04-28T01:55:41.081Z,56.94
2023-04-28T01:58:08.458Z,56.66
2023-04-28T02:00:35.201Z,56.69
2023-04-28T02:03:03.118Z,56.99
2023-04-28T02:05:30.032Z,56.84
2023-04-28T02:07:56.728Z,56.70
2023-04-28T02:10:23.433Z,56.70
2023-04-28T02:12:50.061Z,56.84
2023-04-28T02:15:17.107Z,56.80
2023-04-28T02:17:43.868Z,56.80
2023-04-28T02:20:11.613Z,57.12
2023-04-28T02:22:38.304Z,56.93
2023-04-28T02:25:07.597Z,56.84
2023-04-28T02:27:37.108Z,57.11
2023-04-28T02:30:07.628Z,57.02
2023-04-28T02:32:34.353Z,57.14
2023-04-28T02:35:01.124Z,57.42
2023-04-28T02:37:27.782Z,56.96
2023-04-28T02:39:54.465Z,56.21
2023-04-28T02:42:22.524Z,55.81
2023-04-28T02:44:49.430Z,55.76
2023-04-28T02:47:16.230Z,55.85
2023-04-28T02:49:42.917Z,55.78
2023-04-28T02:52:09.656Z,56.54
2023-04-28T02:54:37.443Z,56.69
2023-04-28T02:57:04.902Z,56.91
2023-04-28T02:59:35.286Z,56.70
2023-04-28T03:02:02.799Z,56.54
2023-04-28T03:04:29.616Z,56.66
2023-04-28T03:06:56.481Z,56.69
2023-04-28T03:09:23.152Z,56.73
2023-04-28T03:11:49.830Z,56.82
2023-04-28T03:14:16.821Z,56.66
2023-04-28T03:16:43.915Z,56.75
2023-04-28T03:19:11.107Z,56.98
2023-04-28T03:21:37.831Z,56.72
2023-04-28T03:24:05.785Z,56.81
2023-04-28T03:26:33.391Z,57.25
2023-04-28T03:29:00.349Z,57.13
2023-04-28T03:31:27.397Z,57.28
2023-04-28T03:33:54.100Z,57.74
2023-04-28T03:36:21.011Z,57.71
2023-04-28T03:38:47.638Z,57.20
2023-04-28T03:41:14.295Z,57.50
2023-04-28T03:44:19.207Z,57.55
2023-04-28T03:46:48.830Z,57.43
2023-04-28T03:49:16.067Z,57.82
2023-04-28T03:51:42.712Z,57.59
2023-04-28T03:54:09.911Z,57.93
2023-04-28T03:56:37.014Z,58.23
2023-04-28T03:59:04.124Z,58.48
2023-04-28T04:01:31.006Z,58.94
2023-04-28T04:03:57.846Z,59.00
2023-04-28T04:06:25.027Z,59.09
2023-04-28T04:08:51.653Z,59.43
2023-04-28T04:11:18.301Z,59.34
2023-04-28T04:13:45.424Z,59.59
2023-04-28T04:16:16.084Z,59.93
2023-04-28T04:18:43.113Z,59.82
2023-04-28T04:21:23.621Z,59.60
2023-04-28T04:23:51.209Z,59.78
2023-04-28T04:26:17.888Z,59.85
2023-04-28T04:28:44.699Z,60.40
2023-04-28T04:31:11.403Z,60.77
2023-04-28T04:33:38.367Z,60.55
2023-04-28T04:36:05.957Z,60.82
2023-04-28T04:38:32.796Z,60.99
2023-04-28T04:41:05.185Z,60.75
2023-04-28T04:43:31.909Z,60.54
2023-04-28T04:45:58.640Z,60.62
2023-04-28T04:48:25.360Z,60.96
2023-04-28T04:50:52.038Z,60.90
2023-04-28T04:53:19.408Z,60.77
2023-04-28T04:55:46.348Z,60.74
2023-04-28T04:58:14.998Z,60.82
2023-04-28T05:01:03.446Z,61.09
2023-04-28T05:03:30.257Z,60.86
2023-04-28T05:05:57.070Z,60.53
2023-04-28T05:08:33.267Z,61.23
2023-04-28T05:10:59.985Z,61.15
2023-04-28T05:13:26.692Z,61.15
2023-04-28T05:15:58.359Z,61.20
2023-04-28T05:18:40.555Z,61.62
2023-04-28T05:21:07.311Z,61.67
2023-04-28T05:23:34.040Z,61.74
2023-04-28T05:26:01.269Z,61.53
2023-04-28T05:28:27.958Z,61.31
2023-04-28T05:30:55.093Z,61.49
2023-04-28T05:33:22.560Z,61.37
2023-04-28T05:35:49.796Z,61.42
2023-04-28T05:38:16.476Z,61.87
2023-04-28T05:40:43.860Z,61.66
2023-04-28T05:43:11.880Z,61.48
2023-04-28T05:45:38.821Z,61.09
2023-04-28T07:37:02.775Z,53.80
2023-04-28T07:39:32.262Z,51.77
2023-04-28T07:41:59.972Z,49.53
2023-04-28T07:44:26.736Z,48.24
2023-04-28T07:46:53.678Z,48.16
2023-04-28T07:49:20.577Z,48.68
2023-04-28T07:51:47.379Z,49.22
2023-04-28T07:54:15.445Z,48.25
2023-04-28T07:56:42.329Z,48.01
2023-04-28T07:59:09.716Z,47.45
2023-04-28T08:01:36.373Z,47.18
2023-04-28T08:04:03.700Z,46.54
2023-04-28T08:06:30.730Z,46.54
2023-04-28T08:08:57.357Z,47.32
2023-04-28T08:11:24.118Z,48.23
2023-04-28T08:13:50.723Z,48.12
2023-04-28T08:16:17.642Z,47.94
2023-04-28T08:18:45.993Z,47.68
2023-04-28T08:21:12.698Z,47.85
2023-04-28T08:23:39.569Z,48.50
2023-04-28T08:26:06.345Z,48.04
2023-04-28T08:28:34.084Z,47.65
2023-04-28T08:31:01.164Z,47.57
2023-04-28T08:33:28.019Z,47.27
2023-04-28T08:35:55.371Z,47.21
2023-04-28T08:38:24.189Z,47.01
2023-04-28T08:40:51.966Z,46.50
2023-04-28T08:43:20.973Z,46.93
2023-04-28T08:45:47.695Z,46.98
2023-04-28T08:48:20.066Z,46.30
2023-04-28T08:50:51.475Z,46.00
2023-04-28T08:53:27.642Z,46.06
2023-04-28T08:55:58.191Z,45.76
2023-04-28T08:58:26.343Z,45.50
2023-04-28T09:00:54.609Z,45.69
2023-04-28T09:03:22.070Z,44.95
2023-04-28T09:05:49.387Z,44.56
2023-04-28T09:08:16.186Z,44.37
2023-04-28T09:10:42.938Z,43.86
2023-04-28T09:13:09.791Z,43.70
2023-04-28T09:15:41.297Z,43.12
2023-04-28T09:18:08.661Z,42.34
2023-04-28T09:20:36.479Z,41.46
2023-04-28T09:23:19.833Z,41.59
2023-04-28T09:25:59.372Z,40.85
2023-04-28T09:28:26.612Z,40.85
2023-04-28T09:30:53.428Z,40.97
2023-04-28T09:33:21.859Z,40.69
2023-04-28T09:35:49.041Z,40.35
2023-04-28T09:38:16.641Z,39.88
2023-04-28T09:41:12.891Z,38.69
2023-04-28T09:43:39.416Z,38.47
2023-04-28T09:46:06.117Z,37.46
2023-04-28T09:48:35.006Z,37.40
2023-04-28T09:51:04.630Z,37.76
2023-04-28T09:53:32.186Z,37.79
2023-04-28T09:56:01.252Z,36.24
2023-04-28T09:58:29.424Z,35.90
2023-04-28T10:00:58.399Z,36.25
2023-04-28T10:03:29.578Z,35.53
2023-04-28T10:05:59.062Z,35.10
2023-04-28T10:08:27.512Z,34.55
2023-04-28T10:10:54.865Z,33.59
2023-04-28T10:13:23.336Z,34.15
2023-04-28T10:15:51.325Z,34.14
2023-04-28T10:18:18.577Z,33.77
2023-04-28T10:21:00.939Z,33.09
2023-04-28T10:23:48.008Z,32.96
2023-04-28T10:26:19.751Z,32.50
2023-04-28T10:28:51.597Z,32.45
2023-04-28T10:31:23.348Z,32.53
2023-04-28T10:33:50.530Z,31.75
2023-04-28T10:36:50.881Z,31.08
2023-04-28T10:39:18.148Z,30.96
2023-04-28T10:41:49.964Z,31.18
2023-04-28T10:44:29.014Z,31.00
2023-04-28T10:47:04.935Z,31.19
2023-04-28T10:49:59.704Z,31.34
2023-04-28T10:52:42.407Z,31.11
2023-04-28T10:55:40.257Z,31.12
2023-04-28T10:58:16.306Z,30.28
2023-04-28T11:00:54.698Z,30.91
2023-04-28T11:03:59.081Z,31.44
2023-04-28T11:06:34.519Z,30.95
2023-04-28T11:09:21.699Z,31.10
2023-04-28T11:11:54.521Z,30.56
2023-04-28T11:14:21.190Z,30.03
2023-04-28T11:16:51.094Z,29.50
2023-04-28T11:19:20.624Z,29.28
2023-04-28T11:21:48.557Z,29.42
2023-04-28T11:24:15.668Z,29.41
2023-04-28T11:26:45.558Z,29.18
2023-04-28T11:29:14.285Z,29.19
2023-04-28T11:31:49.432Z,28.95
2023-04-28T11:34:21.461Z,28.12
2023-04-28T11:36:48.227Z,28.58
2023-04-28T11:39:15.520Z,28.94
2023-04-28T11:41:44.922Z,29.27
2023-04-28T11:44:20.558Z,29.24
2023-04-28T11:46:55.853Z,28.97
2023-04-28T11:49:29.086Z,28.73
2023-04-28T11:52:00.454Z,27.99
2023-04-28T11:54:29.241Z,28.45
2023-04-28T11:56:58.339Z,28.47
2023-04-28T11:59:30.820Z,28.17
2023-04-28T12:01:59.829Z,27.97
2023-04-28T12:04:37.971Z,28.92
2023-04-28T12:07:05.107Z,28.67
2023-04-28T12:09:33.481Z,29.20
2023-04-28T12:12:03.376Z,29.20
2023-04-28T12:14:33.024Z,29.56
2023-04-28T12:16:59.738Z,29.25
2023-04-28T12:19:26.415Z,28.94
2023-04-28T12:22:07.605Z,29.15
2023-04-28T12:24:36.101Z,29.28
2023-04-28T12:27:23.180Z,29.32
2023-04-28T12:29:51.081Z,29.42
2023-04-28T12:32:18.862Z,28.39
2023-04-28T12:34:47.007Z,28.72
2023-04-28T12:37:13.851Z,28.72
2023-04-28T12:39:41.968Z,27.92
2023-04-28T12:42:09.255Z,28.64
2023-04-28T12:44:38.121Z,29.55
2023-04-28T12:47:07.430Z,29.28
2023-04-28T12:49:35.885Z,28.91
2023-04-28T12:52:03.550Z,29.37
2023-04-28T12:54:30.585Z,28.32
2023-04-28T12:56:57.462Z,28.61
2023-04-28T12:59:24.851Z,29.20
2023-04-28T13:01:51.606Z,29.36
2023-04-28T13:04:19.513Z,29.00
2023-04-28T13:06:46.586Z,29.08
2023-04-28T13:09:17.289Z,29.31
2023-04-28T13:11:44.052Z,29.88
2023-04-28T13:14:10.821Z,30.05
2023-04-28T13:16:37.662Z,29.74
2023-04-28T13:19:09.526Z,29.29
2023-04-28T13:21:39.376Z,28.68
2023-04-28T13:24:06.348Z,29.11
2023-04-28T13:26:33.501Z,28.89
2023-04-28T13:29:01.457Z,29.37
2023-04-28T13:31:30.359Z,29.13
2023-04-28T13:33:57.752Z,28.89
2023-04-28T13:36:24.519Z,28.82
2023-04-28T13:38:51.235Z,28.80
2023-04-28T13:41:18.519Z,28.96
2023-04-28T13:43:45.168Z,29.00
2023-04-28T13:46:12.333Z,29.03
2023-04-28T13:48:39.980Z,28.97
2023-04-28T13:51:07.606Z,28.83
2023-04-28T13:53:38.221Z,28.57
2023-04-28T13:56:08.420Z,28.45
2023-04-28T13:58:35.449Z,28.44
2023-04-28T14:01:04.102Z,28.51
2023-04-28T14:03:31.177Z,28.91
2023-04-28T14:05:58.962Z,29.20
2023-04-28T14:08:29.436Z,29.34
2023-04-28T14:10:56.103Z,29.28
2023-04-28T14:13:25.939Z,29.60
2023-04-28T14:15:59.619Z,29.21
2023-04-28T14:18:27.769Z,29.65
2023-04-28T14:20:55.865Z,29.61
2023-04-28T14:23:23.250Z,29.59
2023-04-28T14:25:50.490Z,29.86
2023-04-28T14:28:17.713Z,30.71
2023-04-28T14:30:44.825Z,30.23
2023-04-28T14:33:12.050Z,30.26
2023-04-28T14:35:39.755Z,30.22
2023-04-28T14:38:06.438Z,30.09
2023-04-28T14:40:33.497Z,30.09
2023-04-28T14:43:00.372Z,30.11
2023-04-28T14:45:27.391Z,30.23
2023-04-28T14:47:54.153Z,30.47
2023-04-28T14:50:21.122Z,30.55
2023-04-28T14:52:47.792Z,30.81
2023-04-28T14:55:14.594Z,30.97
2023-04-28T14:57:42.030Z,31.19
2023-04-28T15:00:09.263Z,31.54
2023-04-28T15:02:36.321Z,31.58
2023-04-28T15:05:03.582Z,31.83
2023-04-28T15:07:33.420Z,32.16
2023-04-28T15:10:00.711Z,32.55
2023-04-28T15:12:30.544Z,32.76
2023-04-28T15:14:58.383Z,32.92
2023-04-28T15:17:25.488Z,32.74
2023-04-28T15:19:52.293Z,32.75
2023-04-28T15:22:19.074Z,32.65
2023-04-28T15:24:46.497Z,32.64
2023-04-28T15:27:13.282Z,32.85
2023-04-28T15:29:40.113Z,33.18
2023-04-28T15:32:07.059Z,33.36
2023-04-28T15:34:34.102Z,33.65
2023-04-28T15:37:01.503Z,33.85
2023-04-28T15:39:28.609Z,34.02
2023-04-28T15:41:56.236Z,33.97
2023-04-28T15:44:23.263Z,34.19
2023-04-28T15:46:52.079Z,34.45
2023-04-28T15:49:18.806Z,34.43
2023-04-28T15:51:45.854Z,34.80
2023-04-28T15:54:13.086Z,35.09
2023-04-28T15:56:39.878Z,35.41
2023-04-28T15:59:07.006Z,35.84
2023-04-28T16:01:33.944Z,35.84
2023-04-28T16:04:01.593Z,36.06
2023-04-28T16:06:29.420Z,36.18
2023-04-28T16:08:57.065Z,36.12
2023-04-28T16:11:24.492Z,36.23
2023-04-28T16:13:51.490Z,36.41
2023-04-28T16:16:18.205Z,36.60
2023-04-28T16:18:44.944Z,36.58
2023-04-28T16:21:12.366Z,36.70
2023-04-28T16:23:39.149Z,36.88
2023-04-28T16:26:05.784Z,36.98
2023-04-28T16:28:32.983Z,37.07
2023-04-28T16:30:59.570Z,37.21
2023-04-28T16:33:26.247Z,37.21
2023-04-28T16:35:57.804Z,37.40
2023-04-28T16:38:24.487Z,37.56
2023-04-28T16:40:51.538Z,37.66
2023-04-28T16:43:18.593Z,37.89
2023-04-28T16:45:45.644Z,38.04
2023-04-28T16:48:15.128Z,38.19
2023-04-28T16:50:42.174Z,38.27
2023-04-28T16:53:08.758Z,38.26
2023-04-28T16:55:38.993Z,38.55
2023-04-28T16:58:05.829Z,38.65
2023-04-28T17:00:32.827Z,38.71
2023-04-28T17:02:59.731Z,38.84
2023-04-28T17:05:26.614Z,39.12
2023-04-28T17:07:55.181Z,39.34
2023-04-28T17:10:22.659Z,39.41
2023-04-28T17:12:49.426Z,39.48
2023-04-28T17:15:19.800Z,39.49
2023-04-28T17:17:50.794Z,39.49
2023-04-28T17:20:19.853Z,39.89
2023-04-28T17:22:47.909Z,39.90
2023-04-28T17:25:14.786Z,39.86
2023-04-28T17:27:41.461Z,39.92
2023-04-28T17:30:13.352Z,40.06
2023-04-28T17:32:40.900Z,40.18
2023-04-28T17:35:08.475Z,40.24
2023-04-28T17:37:37.294Z,40.52
2023-04-28T17:40:04.801Z,40.44
2023-04-28T17:42:31.963Z,40.66
2023-04-28T17:44:58.648Z,40.67
2023-04-28T17:47:25.466Z,40.85
2023-04-28T17:49:52.481Z,41.07
2023-04-28T17:52:19.160Z,41.08
2023-04-28T17:54:45.914Z,41.32
2023-04-28T17:57:13.233Z,41.46
2023-04-28T17:59:40.817Z,41.56
2023-04-28T18:02:11.285Z,41.73
2023-04-28T18:04:38.754Z,41.62
2023-04-28T18:07:07.248Z,41.65
2023-04-28T18:09:33.921Z,41.92
2023-04-28T18:12:03.091Z,41.77
2023-04-28T18:14:30.156Z,41.92
2023-04-28T18:16:57.946Z,42.04
2023-04-28T18:19:28.685Z,42.33
2023-04-28T18:21:56.975Z,42.30
2023-04-28T18:24:24.678Z,42.72
2023-04-28T18:26:51.387Z,43.67
2023-04-28T18:29:18.916Z,44.02
2023-04-28T18:31:46.438Z,44.55
2023-04-28T18:34:13.351Z,45.32
2023-04-28T18:36:40.116Z,45.75
2023-04-28T18:39:09.017Z,45.97
2023-04-28T18:41:36.488Z,46.32
2023-04-28T18:44:03.458Z,46.55
2023-04-28T18:46:30.430Z,46.27
2023-04-28T18:48:57.221Z,46.74
2023-04-28T18:51:23.946Z,47.07
2023-04-28T18:53:50.811Z,47.42
2023-04-28T18:56:17.506Z,47.65
2023-04-28T18:58:45.789Z,47.81
2023-04-28T19:01:14.246Z,48.13
2023-04-28T19:03:41.068Z,48.10
2023-04-28T19:06:08.619Z,48.32
2023-04-28T19:08:39.044Z,48.26
2023-04-28T19:11:09.642Z,48.66
2023-04-28T19:13:37.714Z,48.99
2023-04-28T19:16:05.511Z,48.83
2023-04-28T19:18:33.374Z,48.81
2023-04-28T19:21:04.209Z,48.94
2023-04-28T19:23:32.451Z,49.55
2023-04-28T19:25:59.976Z,49.31
2023-04-28T19:28:26.864Z,49.03
2023-04-28T19:30:54.480Z,48.90
2023-04-28T19:33:24.880Z,49.01
2023-04-28T19:35:56.795Z,49.38
2023-04-28T19:38:23.608Z,49.55
2023-04-28T19:40:52.354Z,49.74
2023-04-28T19:43:19.181Z,49.94
2023-04-28T19:45:46.766Z,50.20
2023-04-28T19:48:14.621Z,50.40
2023-04-28T19:50:42.278Z,50.56
2023-04-28T19:53:09.609Z,50.45
2023-04-28T19:55:37.069Z,50.39
2023-04-28T19:58:04.125Z,50.83
2023-04-28T20:00:32.443Z,51.07
2023-04-28T20:03:00.014Z,50.96
2023-04-28T20:05:27.484Z,51.14
2023-04-28T20:07:56.262Z,51.35
2023-04-28T20:10:23.890Z,51.64
2023-04-28T20:12:50.752Z,51.11
2023-04-28T20:15:18.545Z,51.10
2023-04-28T20:17:46.251Z,51.51
2023-04-28T20:20:13.480Z,51.46
2023-04-28T20:22:43.132Z,51.83
2023-04-28T20:25:10.886Z,51.99
2023-04-28T20:27:37.703Z,52.08
2023-04-28T20:30:06.562Z,52.05
2023-04-28T20:32:33.293Z,52.33
2023-04-28T20:35:01.773Z,52.19
2023-04-28T20:37:28.487Z,52.06
2023-04-28T20:39:55.164Z,52.05
2023-04-28T20:42:22.115Z,52.29
2023-04-28T20:44:50.817Z,52.71
2023-04-28T20:47:18.102Z,52.86
2023-04-28T20:49:44.810Z,52.85
2023-04-28T20:52:11.484Z,53.14
2023-04-28T20:54:40.065Z,53.21
2023-04-28T20:57:09.310Z,53.26
2023-04-28T20:59:36.830Z,53.19
2023-04-28T21:02:03.668Z,53.45
2023-04-28T21:04:30.622Z,53.01
2023-04-28T21:06:57.371Z,53.43
2023-04-28T21:09:25.427Z,53.28
2023-04-28T21:11:52.788Z,53.22
2023-04-28T21:14:20.454Z,53.31
2023-04-28T21:16:47.372Z,53.55
2023-04-28T21:19:14.163Z,53.65
2023-04-28T21:21:41.134Z,53.66
2023-04-28T21:24:09.284Z,53.93
2023-04-28T21:26:36.923Z,54.00
2023-04-28T21:29:03.635Z,54.05
2023-04-28T21:31:30.739Z,54.28
2023-04-28T21:33:57.839Z,54.41
2023-04-28T21:36:24.714Z,54.50
2023-04-28T21:38:51.965Z,54.31
2023-04-28T21:41:18.663Z,54.36
2023-04-28T21:43:45.296Z,54.38
2023-04-28T21:46:13.225Z,54.44
2023-04-28T21:48:40.075Z,54.41
2023-04-28T21:51:07.044Z,54.57
2023-04-28T21:53:33.845Z,54.63
2023-04-28T21:56:02.271Z,54.51
2023-04-28T21:58:29.067Z,54.57
2023-04-28T22:00:56.043Z,54.56
2023-04-28T22:03:23.110Z,54.84
2023-04-28T22:05:50.583Z,54.94
2023-04-28T22:08:17.328Z,54.83
2023-04-28T22:10:45.713Z,54.84
2023-04-28T22:13:13.104Z,54.91
2023-04-28T22:15:40.199Z,55.21
2023-04-28T22:18:08.369Z,55.28
2023-04-28T22:20:35.938Z,55.61
2023-04-28T22:23:02.801Z,55.49
2023-04-28T22:25:29.577Z,55.63
2023-04-28T22:27:56.322Z,55.73
2023-04-28T22:30:25.747Z,55.71
2023-04-28T22:32:53.504Z,55.96
2023-04-28T22:35:20.235Z,55.92
2023-04-28T22:37:46.994Z,56.11
2023-04-28T22:40:13.817Z,55.82
2023-04-28T22:42:42.605Z,56.01
2023-04-28T22:45:10.393Z,55.89
2023-04-28T22:47:40.521Z,55.90
2023-04-28T22:50:11.311Z,55.73
2023-04-28T22:52:38.297Z,55.89
2023-04-28T22:55:06.524Z,56.27
2023-04-28T22:57:33.390Z,56.31
2023-04-28T23:00:00.188Z,56.24
2023-04-28T23:02:27.014Z,56.07
2023-04-28T23:04:54.064Z,55.93
2023-04-28T23:07:21.261Z,56.07
2023-04-28T23:09:48.087Z,56.27
2023-04-28T23:12:15.024Z,56.08
2023-04-28T23:14:41.714Z,56.19
2023-04-28T23:17:08.502Z,56.16
2023-04-28T23:19:39.114Z,56.32
2023-04-28T23:22:07.902Z,56.41
2023-04-28T23:24:37.275Z,56.61
2023-04-28T23:27:04.797Z,56.82
2023-04-28T23:29:32.324Z,56.89
2023-04-28T23:31:59.676Z,56.81
2023-04-28T23:34:27.130Z,56.88
2023-04-28T23:36:53.850Z,57.09
2023-04-28T23:39:20.657Z,56.84
2023-04-28T23:41:47.257Z,57.20
2023-04-28T23:44:13.885Z,57.24
2023-04-28T23:46:40.554Z,57.25
2023-04-28T23:49:07.295Z,57.26
2023-04-28T23:51:33.984Z,57.31
2023-04-28T23:54:01.681Z,57.26
2023-04-28T23:56:28.339Z,57.32
2023-04-28T23:58:55.105Z,57.17
